Nogales International Airport Nogales US
ICAO: KOLS
IATA: OLS
Category: Medium
Scheduled Services: No

Elevation: 3955 ft
TransAlt. 18000 ft.

Airport Communications:
TUCSON APP DEP:125.1
ASOS:121.125
PRESCOTT RDO:122.4
CTAF/UNICOM:122.8

KOLS Zoom In..

If you have problems with the map follow the link
https://www.worldairports.se/pages/airport.php?
ICAO=KOLS

Runways:

(A) RW 03 length 7200 ft width 100 ft
---- / hdg 34

(B) RW 21 length 7200 ft width 100 ft
---- / hdg 214

Location; KOLS
Day. 18 / Time. 23.54 Zulu
* Altimeter: 30.03
* Temperature: 24° c. 75.2°f.
* Wind from: 040° Speed 06 kn.
Dewpoint: 08° c.
Visibility: 10 Statute Miles.
Clouds: Clear (automated report).

KOLS 182354Z AUTO 04006KT 10SM CLR 24/08 A3003 RMK AO2 SLP122 T02390078 10256 20200 56007


Wind From 040°
Speed 06 kn.

 
 
jpsmedia.com for Web Design worldairports.se 2018   terms of use